VIDPVNKT

Guest
Details From VIDP - INDIRA GANDHI INTL
To VNKT - Kathmandu Tribhuvan Intl
Flight Number -
Tags decoded
Created
Modified
Stats Distance 474 nm / 879 km
Max Altitude 0 ft / 0 m
Waypoints 4
Social Downloads 2
Likes 0
Share VATSIM

Download

Looking for another format? Having issues loading an existing format? Contact us
Advertisement - Login to hide

Notes

Requested: VIDP ALI R460 LKN G598 SMR VNKT Unmatched points: R460 LKN G598

Route

VIDP ALI SMR VNKT

ID Type Via Altitude Latitude Longitude Leg Dist Tot Dist Heading (true) Name
O VIDP APT - 0 ft / 0 m 28.56650˚ 77.10309˚ - 0 nm - INDIRA GANDHI INTL
ALI VOR - 0 ft / 0 m 27.82931˚ 78.17833˚ 72 nm 72 nm 128° / 128° ALIGARH VOR-DME
SMR VOR - 0 ft / 0 m 27.16417˚ 84.98222˚ 364 nm 436 nm 95° / 98° SIMARA VOR-DME
O VNKT APT - 0 ft / 0 m 27.69658˚ 85.35910˚ 37 nm 474 nm 32° / 32° Kathmandu Tribhuvan Intl

Altitude Profile

Advertisement - Login to hide

Weather


0- 5 10 15 20 25 30 35+ Temperature / ° C

Clouds and Precipitation
Forecast for 2017-12-12 06:00 UTC. Updated an hour ago

Ground ~20,000 ft ~40,000 ft Winds

VIDP

Details ICAO VIDP (DEL)
Name INDIRA GANDHI INTL
Region India
Timezone Asia/Kolkata (UTC+5.5)
Stats Elevation 777 ft / 237 m (AMSL)
Location 28.566496° 77.103090°
Runways 2
Magnetic Variation 1.216° E

METAR

VIDP 120600Z 25004KT 1200 R28/1400 R29/1400 BR SCT040 BKN100 19/15 Q1017 NOSIG

Decode

TAF

TAF VIDP 120500Z 1206/1312 23005KT 1500 BR SCT030 BKN100 TEMPO 1200/1212 FEW035CB OVC080 BECMG 1218/1220 34004KT 1500 HZ BR FEW035 SCT100 BECMG 1300/1302 0200 FG BECMG 1304/1306 1200 BR HZ SCT100

Decode

Departure Runways

ID Width Length Bearing (true) Bearing (mag) Surface Threshold Offset Overrun Length
09 150 ft / 46 m 9,270 ft / 2,826 m 91.50° 90.28° Asphalt 0 ft / 0 m 195 ft / 59 m
10 150 ft / 46 m 12,488 ft / 3,807 m 104.67° 103.45° Asphalt 0 ft / 0 m 880 ft / 268 m
27 150 ft / 46 m 9,270 ft / 2,826 m 271.52° 270.30° Asphalt 499 ft / 152 m 0 ft / 0 m
28 150 ft / 46 m 12,488 ft / 3,807 m 284.69° 283.47° Asphalt 0 ft / 0 m 470 ft / 143 m

VNKT

Details ICAO VNKT (KTM)
Name Kathmandu Tribhuvan Intl
Region Nepal
Timezone Asia/Kathmandu (UTC+5.8)
Stats Elevation 4,390 ft / 1,338 m (AMSL)
Location 27.696583° 85.359100°
Runways 1
Magnetic Variation 0.492° E

METAR

VNKT 120620Z VRB02KT 7000 FEW020 21/04 Q1020 NOSIG

Decode

TAF

TAF VNKT 120500Z 1206/1306 17003KT 5000 HZ FEW015 BECMG 1207/1209 28008KT 8000 FEW020 BECMG 1214/1215 00000KT 6000 FEW015 BECMG 1300/1302 00000KT 3000 BR FEW010 PROB40 1301/1303 1000 BR BECMG 1304/1305 13003KT 4000 BR/HZ FEW015

Decode

Destination Runways

ID Width Length Bearing (true) Bearing (mag) Surface Threshold Offset Overrun Length
02 148 ft / 45 m 10,017 ft / 3,053 m 21.50° 21.01° Asphalt 0 ft / 0 m 0 ft / 0 m
20 148 ft / 45 m 10,017 ft / 3,053 m 201.51° 201.02° Asphalt 400 ft / 122 m 0 ft / 0 m

Popular Alternatives